»·PEaware :: N1399 KOTH-KEUG

N1399 :: KOTH-KEUG

FLIGHT INFORMATION

Flight Status: Arrived
Operator: Privately registered:
United States
More flights under this callsign
Pilot: David C. (16084)
Aircraft: PIPER PA-31/31P NAVAJO CHIEFTAIN
(PA31)
More flights by this aircraft type
Origin: KOTH North Bend Mun
United States
Destination: KEUG Mahlon Sweet
United States
More flights between these airports :: More routes between these airports
Route: OTH6 SCOTY EUG
File this flight plan on PilotEdge
Remarks:
Altitude:
(Current/Filed)
9,000ft
Speed:
(Current/Filed)
267kts
Departed: 13-Jan-18 06:41 PM
Arrived: 13-Jan-18 07:21 PM
Distance/Time
Traveled:
61nm/0:40
Distance/Time
To Go:
Arrived

Flight Plot

Page will automatically refresh every two minutes.

Flight plan parsing failed; only flown route is shown


Map Options




Map Legend


Flown Route
Filed Route
Departure Airport
Arrival Airport
Navaid (VOR, NDB)
Fix

Horizontal Profiles

Position Reports

Time Latitude Longitude Heading Altitude Ground
Speed
13-Jan-18 18:30 43.416870 -124.249559 211 21ft 0kts
13-Jan-18 18:31 43.416870 -124.249559 211 21ft 0kts
13-Jan-18 18:32 43.416870 -124.249559 211 21ft 0kts
13-Jan-18 18:33 43.416870 -124.249559 211 21ft 0kts
13-Jan-18 18:34 43.416870 -124.249559 211 21ft 0kts
13-Jan-18 18:35 43.416870 -124.249559 211 21ft 0kts
13-Jan-18 18:36 43.416870 -124.249559 211 21ft 0kts
13-Jan-18 18:37 43.416870 -124.249559 211 21ft 0kts
13-Jan-18 18:38 43.416870 -124.249559 211 21ft 0kts
13-Jan-18 18:39 43.416870 -124.249559 211 21ft 0kts
13-Jan-18 18:40 43.416847 -124.249568 185 21ft 1kts
13-Jan-18 18:41 43.417000 -124.249263 347 21ft 0kts
13-Jan-18 18:42 43.417000 -124.249263 347 21ft 0kts
13-Jan-18 18:43 43.417000 -124.249263 347 21ft 0kts
13-Jan-18 18:44 43.418153 -124.249152 58 21ft 14kts
13-Jan-18 18:45 43.419098 -124.246883 60 21ft 0kts
13-Jan-18 18:46 43.419098 -124.246883 60 21ft 0kts
13-Jan-18 18:47 43.417315 -124.244275 144 21ft 67kts
13-Jan-18 18:48 43.394652 -124.247180 264 1531ft 127kts
13-Jan-18 18:49 43.409482 -124.292592 294 3061ft 137kts
13-Jan-18 18:50 43.419552 -124.337337 344 4905ft 124kts
13-Jan-18 18:51 43.433650 -124.312664 105 6534ft 106kts
13-Jan-18 18:52 43.428448 -124.271346 105 8077ft 116kts
13-Jan-18 18:53 43.422461 -124.224679 105 9031ft 158kts
13-Jan-18 18:54 43.423412 -124.160457 53 9028ft 200kts
13-Jan-18 18:55 43.462652 -124.106459 47 9018ft 206kts
13-Jan-18 18:56 43.502625 -124.053514 47 9018ft 207kts
13-Jan-18 18:57 43.542815 -124.000416 46 9018ft 207kts
13-Jan-18 18:58 43.582535 -123.947999 48 9018ft 207kts
13-Jan-18 18:59 43.622270 -123.894768 47 9018ft 207kts
13-Jan-18 19:00 43.661537 -123.842417 47 9018ft 207kts
13-Jan-18 19:01 43.700766 -123.790050 47 9032ft 205kts
13-Jan-18 19:02 43.739421 -123.738347 47 9049ft 203kts
13-Jan-18 19:03 43.777725 -123.687015 47 9069ft 201kts
13-Jan-18 19:04 43.816291 -123.635212 47 9091ft 199kts
13-Jan-18 19:05 43.855547 -123.582376 42 9111ft 206kts
13-Jan-18 19:06 43.895305 -123.528870 42 9111ft 208kts
13-Jan-18 19:07 43.934064 -123.476527 42 9012ft 210kts
13-Jan-18 19:08 43.973250 -123.423519 42 9010ft 208kts
13-Jan-18 19:09 44.010876 -123.372509 42 9002ft 185kts
13-Jan-18 19:10 44.041184 -123.331379 43 9006ft 178kts
13-Jan-18 19:11 44.082769 -123.313215 5 7879ft 172kts
13-Jan-18 19:12 44.122223 -123.306042 5 6187ft 168kts
13-Jan-18 19:13 44.164678 -123.299426 5 4342ft 167kts
13-Jan-18 19:14 44.205928 -123.293689 4 4004ft 168kts
13-Jan-18 19:15 44.249460 -123.287480 4 4003ft 173kts
13-Jan-18 19:16 44.293167 -123.280953 4 4004ft 173kts
13-Jan-18 19:17 44.337066 -123.274142 4 4008ft 181kts
13-Jan-18 19:18 44.360002 -123.239400 127 3994ft 146kts
13-Jan-18 19:19 44.325096 -123.222070 180 3985ft 137kts
13-Jan-18 19:20 44.292225 -123.221474 180 3461ft 130kts
13-Jan-18 19:21 44.259468 -123.221021 180 2851ft 133kts
13-Jan-18 19:22 44.226430 -123.220506 179 2202ft 132kts
13-Jan-18 19:23 44.198559 -123.220106 179 1635ft 100kts
13-Jan-18 19:24 44.175101 -123.219733 179 1189ft 95kts
13-Jan-18 19:25 44.152502 -123.219407 179 766ft 88kts
13-Jan-18 19:26 44.132386 -123.219103 180 391ft 81kts
13-Jan-18 19:27 44.125504 -123.217853 148 378ft 0kts
13-Jan-18 19:28 44.125504 -123.217853 148 378ft 0kts
13-Jan-18 19:29 44.121591 -123.216995 178 378ft 25kts
13-Jan-18 19:30 44.117970 -123.215118 213 378ft 12kts
13-Jan-18 19:31 44.117878 -123.215205 214 378ft 0kts

Navigation Log

Ident Type
Flight plan parsing failed, navigation log unavailable